Sconset, Massachusetts
Current Conditions -  °F | °C
As of 12:53 PM on Sunday 25 Jan 2015 (Local Time) from KACK Reporting Station
Clear Clear  
Wind Chill: 33°   Ceiling: Unl
Heat Index: 42°   Visibility: 10mi
Dew Point: 26°   Wind: 23mph
Humidity: 53%   Direction: 280°W
Pressure: 29.62"   Gusts: 35mph
Location:  41.2623°N, 69.9668°W
Report Text: KACK 251753Z 28020G30KT 10SM CLR 06/M03 A2962 RMK AO2 PK WND 26034/1657 SLP030 T00561033 10061 20017 58000
Loading
Personal Weather Stations






























Interactive Weather Map New forecast layout! Learn more

10-Day Weather Forecast

Advertisements
Track Severe Weather on mobile